Virgil, Illinois
Current Conditions -  °F | °C
As of 6:15 PM on Thursday 18 Dec 2014 (Local Time) from KDKB Reporting Station
Overcast Overcast  
Wind Chill: 18°   Ceiling: 2100
Heat Index: 24°   Visibility: 10mi
Dew Point: 18°   Wind: 5mph
Humidity: 77%   Direction: 320°NW
Pressure: 30.25"   Gusts: NA
Location:  41.96°N, 88.54°W
Report Text: KDKB 190015Z AUTO 32004KT 10SM OVC021 M04/M08 A3025 RMK AO2 T10451080
Loading
Personal Weather Stations






























Interactive Weather Map New forecast layout! Learn more

10-Day Weather Forecast

Advertisements
Track Severe Weather on mobile